sensor_id;sensor_type;location;lat;lon;timestamp;pressure;altitude;pressure_sealevel;temperature;humidity
45255;BME280;30989;52.078;21.014;2023-09-19T00:00:01;168351.34;;;17.47;100.00
45255;BME280;30989;52.078;21.014;2023-09-19T00:02:26;168341.94;;;17.44;100.00
45255;BME280;30989;52.078;21.014;2023-09-19T00:04:52;168331.16;;;17.39;100.00
45255;BME280;30989;52.078;21.014;2023-09-19T00:07:19;168327.13;;;17.38;100.00
45255;BME280;30989;52.078;21.014;2023-09-19T00:09:44;168327.13;;;17.38;100.00
45255;BME280;30989;52.078;21.014;2023-09-19T00:12:09;168337.91;;;17.42;100.00
45255;BME280;30989;52.078;21.014;2023-09-19T00:14:35;168329.81;;;17.39;100.00
45255;BME280;30989;52.078;21.014;2023-09-19T00:17:02;168321.75;;;17.36;100.00
45255;BME280;30989;52.078;21.014;2023-09-19T00:19:36;168325.78;;;17.37;100.00
45255;BME280;30989;52.078;21.014;2023-09-19T00:22:03;168321.75;;;17.36;100.00
45255;BME280;30989;52.078;21.014;2023-09-19T00:24:29;168313.69;;;17.33;100.00
45255;BME280;30989;52.078;21.014;2023-09-19T00:26:54;168315.03;;;17.33;100.00
45255;BME280;30989;52.078;21.014;2023-09-19T00:29:21;168315.03;;;17.33;100.00
45255;BME280;30989;52.078;21.014;2023-09-19T00:31:49;168302.94;;;17.29;100.00
45255;BME280;30989;52.078;21.014;2023-09-19T00:34:15;168308.31;;;17.31;100.00
45255;BME280;30989;52.078;21.014;2023-09-19T00:36:41;168309.66;;;17.31;100.00
45255;BME280;30989;52.078;21.014;2023-09-19T00:39:08;168300.25;;;17.28;100.00
45255;BME280;30989;52.078;21.014;2023-09-19T00:41:34;168277.38;;;17.19;100.00
45255;BME280;30989;52.078;21.014;2023-09-19T00:44:03;168293.53;;;17.25;100.00
45255;BME280;30989;52.078;21.014;2023-09-19T00:46:35;168290.81;;;17.24;100.00
45255;BME280;30989;52.078;21.014;2023-09-19T00:49:02;168284.09;;;17.22;100.00
45255;BME280;30989;52.078;21.014;2023-09-19T00:51:28;168272.00;;;17.17;100.00
45255;BME280;30989;52.078;21.014;2023-09-19T00:53:55;168281.41;;;17.21;100.00
45255;BME280;30989;52.078;21.014;2023-09-19T00:56:20;168274.69;;;17.18;100.00
45255;BME280;30989;52.078;21.014;2023-09-19T00:58:46;168276.03;;;17.19;100.00
45255;BME280;30989;52.078;21.014;2023-09-19T01:01:16;168276.03;;;17.19;100.00
45255;BME280;30989;52.078;21.014;2023-09-19T01:03:42;168272.00;;;17.17;100.00
45255;BME280;30989;52.078;21.014;2023-09-19T01:06:08;168274.69;;;17.18;100.00
45255;BME280;30989;52.078;21.014;2023-09-19T01:08:34;168265.28;;;17.15;100.00
45255;BME280;30989;52.078;21.014;2023-09-19T01:11:43;168276.03;;;17.19;100.00
45255;BME280;30989;52.078;21.014;2023-09-19T01:25:34;168285.44;;;17.22;100.00
45255;BME280;30989;52.078;21.014;2023-09-19T01:30:57;168261.25;;;17.13;100.00
45255;BME280;30989;52.078;21.014;2023-09-19T01:33:26;168266.63;;;17.15;100.00
45255;BME280;30989;52.078;21.014;2023-09-19T01:35:52;168258.56;;;17.12;100.00
45255;BME280;30989;52.078;21.014;2023-09-19T01:38:21;168259.91;;;17.13;100.00
45255;BME280;30989;52.078;21.014;2023-09-19T01:40:58;168263.94;;;17.14;100.00
45255;BME280;30989;52.078;21.014;2023-09-19T01:43:38;168262.59;;;17.14;100.00
45255;BME280;30989;52.078;21.014;2023-09-19T01:46:09;168266.63;;;17.15;100.00
45255;BME280;30989;52.078;21.014;2023-09-19T01:48:42;168273.34;;;17.18;100.00
45255;BME280;30989;52.078;21.014;2023-09-19T01:51:15;168262.59;;;17.14;100.00
45255;BME280;30989;52.078;21.014;2023-09-19T01:56:20;168274.69;;;17.18;100.00
45255;BME280;30989;52.078;21.014;2023-09-19T01:58:53;168280.06;;;17.20;100.00
45255;BME280;30989;52.078;21.014;2023-09-19T02:01:23;168286.78;;;17.23;100.00
45255;BME280;30989;52.078;21.014;2023-09-19T02:03:50;168296.22;;;17.26;100.00
45255;BME280;30989;52.078;21.014;2023-09-19T02:06:17;168300.25;;;17.28;100.00
45255;BME280;30989;52.078;21.014;2023-09-19T02:08:45;168296.22;;;17.26;100.00
45255;BME280;30989;52.078;21.014;2023-09-19T02:11:13;168300.25;;;17.28;100.00
45255;BME280;30989;52.078;21.014;2023-09-19T02:13:39;168300.25;;;17.28;100.00
45255;BME280;30989;52.078;21.014;2023-09-19T02:16:06;168294.84;;;17.26;100.00
45255;BME280;30989;52.078;21.014;2023-09-19T02:18:32;168289.47;;;17.24;100.00
45255;BME280;30989;52.078;21.014;2023-09-19T02:21:02;168281.41;;;17.21;100.00
45255;BME280;30989;52.078;21.014;2023-09-19T02:23:29;168277.38;;;17.19;100.00
45255;BME280;30989;52.078;21.014;2023-09-19T02:25:56;168267.97;;;17.16;100.00
45255;BME280;30989;52.078;21.014;2023-09-19T02:28:26;168269.31;;;17.16;100.00
45255;BME280;30989;52.078;21.014;2023-09-19T02:30:58;168259.91;;;17.13;100.00
45255;BME280;30989;52.078;21.014;2023-09-19T02:33:24;168251.84;;;17.10;100.00
45255;BME280;30989;52.078;21.014;2023-09-19T02:35:56;168239.72;;;17.05;100.00
45255;BME280;30989;52.078;21.014;2023-09-19T02:38:26;168231.66;;;17.02;100.00
45255;BME280;30989;52.078;21.014;2023-09-19T02:40:53;168224.94;;;16.99;100.00
45255;BME280;30989;52.078;21.014;2023-09-19T02:43:20;168215.53;;;16.96;100.00
45255;BME280;30989;52.078;21.014;2023-09-19T02:45:49;168211.50;;;16.94;100.00
45255;BME280;30989;52.078;21.014;2023-09-19T02:48:16;168202.09;;;16.91;100.00
45255;BME280;30989;52.078;21.014;2023-09-19T02:50:42;168192.66;;;16.87;100.00
45255;BME280;30989;52.078;21.014;2023-09-19T02:53:08;168185.94;;;16.85;100.00
45255;BME280;30989;52.078;21.014;2023-09-19T02:55:35;168171.16;;;16.79;100.00
45255;BME280;30989;52.078;21.014;2023-09-19T02:58:00;168157.72;;;16.74;100.00
45255;BME280;30989;52.078;21.014;2023-09-19T03:00:26;168146.97;;;16.70;100.00
45255;BME280;30989;52.078;21.014;2023-09-19T03:02:54;168140.25;;;16.67;100.00
45255;BME280;30989;52.078;21.014;2023-09-19T03:05:21;168128.09;;;16.63;100.00
45255;BME280;30989;52.078;21.014;2023-09-19T03:07:47;168116.00;;;16.58;100.00
45255;BME280;30989;52.078;21.014;2023-09-19T03:10:17;168103.91;;;16.54;100.00
45255;BME280;30989;52.078;21.014;2023-09-19T03:12:43;168105.25;;;16.54;100.00
45255;BME280;30989;52.078;21.014;2023-09-19T03:15:09;168091.81;;;16.49;100.00
45255;BME280;30989;52.078;21.014;2023-09-19T03:17:35;168077.03;;;16.43;100.00
45255;BME280;30989;52.078;21.014;2023-09-19T03:20:02;168078.38;;;16.44;100.00
45255;BME280;30989;52.078;21.014;2023-09-19T03:22:34;168066.25;;;16.39;100.00
45255;BME280;30989;52.078;21.014;2023-09-19T03:24:59;168024.59;;;16.24;100.00
45255;BME280;30989;52.078;21.014;2023-09-19T03:27:26;168048.78;;;16.33;100.00
45255;BME280;30989;52.078;21.014;2023-09-19T03:29:52;168050.13;;;16.33;100.00
45255;BME280;30989;52.078;21.014;2023-09-19T03:32:19;168055.50;;;16.35;100.00
45255;BME280;30989;52.078;21.014;2023-09-19T03:34:45;168060.88;;;16.37;100.00
45255;BME280;30989;52.078;21.014;2023-09-19T03:37:14;168052.81;;;16.34;100.00
45255;BME280;30989;52.078;21.014;2023-09-19T03:39:41;168052.81;;;16.34;100.00
45255;BME280;30989;52.078;21.014;2023-09-19T03:42:06;168060.88;;;16.37;100.00
45255;BME280;30989;52.078;21.014;2023-09-19T03:44:33;168058.19;;;16.36;100.00
45255;BME280;30989;52.078;21.014;2023-09-19T03:46:59;168060.88;;;16.37;100.00
45255;BME280;30989;52.078;21.014;2023-09-19T03:49:24;168067.63;;;16.40;100.00
45255;BME280;30989;52.078;21.014;2023-09-19T03:51:50;168085.09;;;16.47;100.00
45255;BME280;30989;52.078;21.014;2023-09-19T03:54:15;168085.09;;;16.47;100.00
45255;BME280;30989;52.078;21.014;2023-09-19T03:56:42;168103.91;;;16.54;100.00
45255;BME280;30989;52.078;21.014;2023-09-19T03:59:09;168099.88;;;16.52;100.00
45255;BME280;30989;52.078;21.014;2023-09-19T04:01:35;168094.50;;;16.50;100.00
45255;BME280;30989;52.078;21.014;2023-09-19T04:04:00;168086.44;;;16.47;100.00
45255;BME280;30989;52.078;21.014;2023-09-19T04:06:34;168075.69;;;16.43;100.00
45255;BME280;30989;52.078;21.014;2023-09-19T04:09:01;168066.25;;;16.39;100.00
45255;BME280;30989;52.078;21.014;2023-09-19T04:11:27;168066.25;;;16.39;100.00
45255;BME280;30989;52.078;21.014;2023-09-19T04:13:52;168051.47;;;16.34;100.00
45255;BME280;30989;52.078;21.014;2023-09-19T04:16:19;168044.75;;;16.31;100.00
45255;BME280;30989;52.078;21.014;2023-09-19T04:18:44;168036.69;;;16.28;100.00
45255;BME280;30989;52.078;21.014;2023-09-19T04:21:10;168031.31;;;16.26;100.00
45255;BME280;30989;52.078;21.014;2023-09-19T04:23:36;168031.31;;;16.26;100.00
45255;BME280;30989;52.078;21.014;2023-09-19T04:26:02;168024.59;;;16.24;100.00
45255;BME280;30989;52.078;21.014;2023-09-19T04:28:30;168025.94;;;16.24;100.00
45255;BME280;30989;52.078;21.014;2023-09-19T04:30:56;168020.56;;;16.22;100.00
45255;BME280;30989;52.078;21.014;2023-09-19T04:33:22;168031.31;;;16.26;100.00
45255;BME280;30989;52.078;21.014;2023-09-19T04:35:51;168031.31;;;16.26;100.00
45255;BME280;30989;52.078;21.014;2023-09-19T04:38:18;168028.63;;;16.25;100.00
45255;BME280;30989;52.078;21.014;2023-09-19T04:40:44;168024.59;;;16.24;100.00
45255;BME280;30989;52.078;21.014;2023-09-19T04:43:09;168039.38;;;16.29;100.00
45255;BME280;30989;52.078;21.014;2023-09-19T04:45:35;168040.72;;;16.30;100.00
45255;BME280;30989;52.078;21.014;2023-09-19T04:48:00;168043.41;;;16.31;100.00
45255;BME280;30989;52.078;21.014;2023-09-19T04:50:26;168047.44;;;16.32;100.00
45255;BME280;30989;52.078;21.014;2023-09-19T04:52:53;168051.47;;;16.34;100.00
45255;BME280;30989;52.078;21.014;2023-09-19T04:55:19;168058.19;;;16.36;100.00
45255;BME280;30989;52.078;21.014;2023-09-19T04:57:50;168052.81;;;16.34;100.00
45255;BME280;30989;52.078;21.014;2023-09-19T05:00:20;168071.66;;;16.41;100.00
45255;BME280;30989;52.078;21.014;2023-09-19T05:02:52;168090.47;;;16.49;100.00
45255;BME280;30989;52.078;21.014;2023-09-19T05:05:18;168106.59;;;16.55;100.00
45255;BME280;30989;52.078;21.014;2023-09-19T05:07:45;168121.38;;;16.60;100.00
45255;BME280;30989;52.078;21.014;2023-09-19T05:10:11;168137.56;;;16.66;100.00
45255;BME280;30989;52.078;21.014;2023-09-19T05:12:38;168160.41;;;16.75;100.00
45255;BME280;30989;52.078;21.014;2023-09-19T05:15:04;168171.16;;;16.79;100.00
45255;BME280;30989;52.078;21.014;2023-09-19T05:17:30;168184.59;;;16.84;100.00
45255;BME280;30989;52.078;21.014;2023-09-19T05:19:57;168214.19;;;16.95;100.00
45255;BME280;30989;52.078;21.014;2023-09-19T05:22:23;168228.97;;;17.01;100.00
45255;BME280;30989;52.078;21.014;2023-09-19T05:24:50;168235.69;;;17.03;100.00
45255;BME280;30989;52.078;21.014;2023-09-19T05:27:16;168238.38;;;17.04;100.00
45255;BME280;30989;52.078;21.014;2023-09-19T05:29:45;168246.44;;;17.07;100.00
45255;BME280;30989;52.078;21.014;2023-09-19T05:32:11;168257.22;;;17.12;100.00
45255;BME280;30989;52.078;21.014;2023-09-19T05:34:37;168265.28;;;17.15;100.00
45255;BME280;30989;52.078;21.014;2023-09-19T05:37:02;168257.22;;;17.12;100.00
45255;BME280;30989;52.078;21.014;2023-09-19T05:39:28;168288.13;;;17.23;100.00
45255;BME280;30989;52.078;21.014;2023-09-19T05:41:53;168308.31;;;17.31;100.00
45255;BME280;30989;52.078;21.014;2023-09-19T05:44:19;168328.47;;;17.38;100.00
45255;BME280;30989;52.078;21.014;2023-09-19T05:46:44;168354.03;;;17.48;100.00
45255;BME280;30989;52.078;21.014;2023-09-19T05:49:11;168362.09;;;17.51;100.00
45255;BME280;30989;52.078;21.014;2023-09-19T05:51:36;168380.94;;;17.58;100.00
45255;BME280;30989;52.078;21.014;2023-09-19T05:54:02;168397.06;;;17.64;100.00
45255;BME280;30989;52.078;21.014;2023-09-19T05:56:28;168406.53;;;17.68;100.00
45255;BME280;30989;52.078;21.014;2023-09-19T05:58:54;168425.38;;;17.75;100.00
45255;BME280;30989;52.078;21.014;2023-09-19T06:01:19;168445.53;;;17.83;100.00
45255;BME280;30989;52.078;21.014;2023-09-19T06:03:45;168459.00;;;17.88;100.00
45255;BME280;30989;52.078;21.014;2023-09-19T06:06:10;168480.50;;;17.96;100.00
45255;BME280;30989;52.078;21.014;2023-09-19T06:08:35;168480.50;;;17.96;100.00
45255;BME280;30989;52.078;21.014;2023-09-19T06:11:01;168508.75;;;18.07;100.00
45255;BME280;30989;52.078;21.014;2023-09-19T06:13:29;168522.22;;;18.12;100.00
45255;BME280;30989;52.078;21.014;2023-09-19T06:15:55;168534.31;;;18.16;100.00
45255;BME280;30989;52.078;21.014;2023-09-19T06:18:25;168547.78;;;18.21;100.00
45255;BME280;30989;52.078;21.014;2023-09-19T06:20:51;168562.59;;;18.27;100.00
45255;BME280;30989;52.078;21.014;2023-09-19T06:23:17;168572.00;;;18.30;100.00
45255;BME280;30989;52.078;21.014;2023-09-19T06:25:43;168585.44;;;18.35;100.00
45255;BME280;30989;52.078;21.014;2023-09-19T06:28:09;168601.59;;;18.42;100.00
45255;BME280;30989;52.078;21.014;2023-09-19T06:30:37;168602.94;;;18.42;100.00
45255;BME280;30989;52.078;21.014;2023-09-19T06:33:06;168604.28;;;18.43;100.00
45255;BME280;30989;52.078;21.014;2023-09-19T06:35:33;168601.59;;;18.42;100.00
45255;BME280;30989;52.078;21.014;2023-09-19T06:38:02;168596.22;;;18.40;100.00
45255;BME280;30989;52.078;21.014;2023-09-19T06:40:28;168598.91;;;18.41;100.00
45255;BME280;30989;52.078;21.014;2023-09-19T06:42:53;168594.88;;;18.39;100.00
45255;BME280;30989;52.078;21.014;2023-09-19T06:45:19;168592.19;;;18.38;100.00
45255;BME280;30989;52.078;21.014;2023-09-19T06:47:47;168576.03;;;18.32;100.00
45255;BME280;30989;52.078;21.014;2023-09-19T06:50:21;168589.50;;;18.37;100.00
45255;BME280;30989;52.078;21.014;2023-09-19T06:52:51;168612.38;;;18.46;100.00
45255;BME280;30989;52.078;21.014;2023-09-19T06:55:21;168635.25;;;18.54;100.00
45255;BME280;30989;52.078;21.014;2023-09-19T06:57:49;168668.94;;;18.67;100.00
45255;BME280;30989;52.078;21.014;2023-09-19T07:00:18;168685.09;;;18.73;100.00
45255;BME280;30989;52.078;21.014;2023-09-19T07:03:06;168725.47;;;18.88;100.00
45255;BME280;30989;52.078;21.014;2023-09-19T07:05:37;168741.59;;;18.94;100.00
45255;BME280;30989;52.078;21.014;2023-09-19T07:08:07;168769.88;;;19.05;100.00
45255;BME280;30989;52.078;21.014;2023-09-19T07:10:33;168779.31;;;19.09;100.00
45255;BME280;30989;52.078;21.014;2023-09-19T07:13:00;168807.56;;;19.19;100.00
45255;BME280;30989;52.078;21.014;2023-09-19T07:15:29;168835.84;;;19.30;100.00
45255;BME280;30989;52.078;21.014;2023-09-19T07:18:04;168857.38;;;19.38;100.00
45255;BME280;30989;52.078;21.014;2023-09-19T07:20:30;168889.69;;;19.50;100.00
45255;BME280;30989;52.078;21.014;2023-09-19T07:23:00;168897.81;;;19.53;100.00
45255;BME280;30989;52.078;21.014;2023-09-19T07:25:26;168926.09;;;19.64;100.00
45255;BME280;30989;52.078;21.014;2023-09-19T07:27:52;168948.97;;;19.73;100.00
45255;BME280;30989;52.078;21.014;2023-09-19T07:30:17;168963.78;;;19.78;100.00
45255;BME280;30989;52.078;21.014;2023-09-19T07:32:43;168977.25;;;19.83;100.00
45255;BME280;30989;52.078;21.014;2023-09-19T07:35:08;168994.75;;;19.90;100.00
45255;BME280;30989;52.078;21.014;2023-09-19T07:37:34;169040.56;;;20.07;100.00
45255;BME280;30989;52.078;21.014;2023-09-19T07:40:00;169064.78;;;20.16;100.00
45255;BME280;30989;52.078;21.014;2023-09-19T07:42:26;169097.13;;;20.28;100.00
45255;BME280;30989;52.078;21.014;2023-09-19T07:44:52;169121.38;;;20.38;100.00
45255;BME280;30989;52.078;21.014;2023-09-19T07:47:20;169132.19;;;20.42;100.00
45255;BME280;30989;52.078;21.014;2023-09-19T07:49:47;169151.06;;;20.49;100.00
45255;BME280;30989;52.078;21.014;2023-09-19T07:52:13;169196.84;;;20.66;100.00
45255;BME280;30989;52.078;21.014;2023-09-19T07:54:38;169188.78;;;20.63;100.00
45255;BME280;30989;52.078;21.014;2023-09-19T07:57:06;169168.56;;;20.55;100.00
45255;BME280;30989;52.078;21.014;2023-09-19T07:59:32;169187.44;;;20.63;100.00
45255;BME280;30989;52.078;21.014;2023-09-19T08:01:58;169191.47;;;20.64;100.00
45255;BME280;30989;52.078;21.014;2023-09-19T08:04:24;169194.16;;;20.65;100.00
45255;BME280;30989;52.078;21.014;2023-09-19T08:06:51;169196.84;;;20.66;100.00
45255;BME280;30989;52.078;21.014;2023-09-19T08:09:17;169194.16;;;20.65;100.00
45255;BME280;30989;52.078;21.014;2023-09-19T08:11:47;169157.78;;;20.51;100.00
45255;BME280;30989;52.078;21.014;2023-09-19T08:14:13;169142.97;;;20.46;100.00
45255;BME280;30989;52.078;21.014;2023-09-19T08:16:39;169137.59;;;20.44;100.00
45255;BME280;30989;52.078;21.014;2023-09-19T08:19:05;169151.06;;;20.49;100.00
45255;BME280;30989;52.078;21.014;2023-09-19T08:21:31;169183.38;;;20.61;100.00
45255;BME280;30989;52.078;21.014;2023-09-19T08:23:57;169208.97;;;20.71;100.00
45255;BME280;30989;52.078;21.014;2023-09-19T08:26:23;169221.09;;;20.75;100.00
45255;BME280;30989;52.078;21.014;2023-09-19T08:28:49;169242.72;;;20.83;100.00
45255;BME280;30989;52.078;21.014;2023-09-19T08:31:16;169237.31;;;20.81;100.00
45255;BME280;30989;52.078;21.014;2023-09-19T08:33:43;169253.50;;;20.87;100.00
45255;BME280;30989;52.078;21.014;2023-09-19T08:36:12;169240.03;;;20.82;100.00
45255;BME280;30989;52.078;21.014;2023-09-19T08:38:39;169237.31;;;20.81;100.00
45255;BME280;30989;52.078;21.014;2023-09-19T08:41:06;169241.38;;;20.83;100.00
45255;BME280;30989;52.078;21.014;2023-09-19T08:43:35;169231.88;;;20.79;100.00
45255;BME280;30989;52.078;21.014;2023-09-19T08:46:11;169237.31;;;20.81;100.00
45255;BME280;30989;52.078;21.014;2023-09-19T08:48:58;169237.31;;;20.81;100.00
45255;BME280;30989;52.078;21.014;2023-09-19T08:51:30;169227.84;;;20.78;100.00
45255;BME280;30989;52.078;21.014;2023-09-19T08:56:26;169206.28;;;20.70;100.00
45255;BME280;30989;52.078;21.014;2023-09-19T08:59:05;169196.84;;;20.66;100.00
45255;BME280;30989;52.078;21.014;2023-09-19T09:01:33;169183.38;;;20.61;100.00
45255;BME280;30989;52.078;21.014;2023-09-19T09:03:59;169167.22;;;20.55;100.00
45255;BME280;30989;52.078;21.014;2023-09-19T09:06:26;169168.56;;;20.55;100.00
45255;BME280;30989;52.078;21.014;2023-09-19T09:08:53;169175.31;;;20.58;100.00
45255;BME280;30989;52.078;21.014;2023-09-19T09:11:20;169183.38;;;20.61;100.00
45255;BME280;30989;52.078;21.014;2023-09-19T09:13:46;169188.78;;;20.63;100.00
45255;BME280;30989;52.078;21.014;2023-09-19T09:16:14;169186.06;;;20.62;100.00
45255;BME280;30989;52.078;21.014;2023-09-19T09:18:43;169172.59;;;20.57;100.00
45255;BME280;30989;52.078;21.014;2023-09-19T09:21:09;169153.75;;;20.50;100.00
45255;BME280;30989;52.078;21.014;2023-09-19T09:23:35;169129.50;;;20.41;100.00
45255;BME280;30989;52.078;21.014;2023-09-19T09:26:01;169089.03;;;20.25;100.00
45255;BME280;30989;52.078;21.014;2023-09-19T09:28:29;169059.41;;;20.14;100.00
45255;BME280;30989;52.078;21.014;2023-09-19T09:30:56;169044.59;;;20.09;100.00
45255;BME280;30989;52.078;21.014;2023-09-19T09:33:23;169016.31;;;19.98;100.00
45255;BME280;30989;52.078;21.014;2023-09-19T09:35:58;168981.31;;;19.85;100.00
45255;BME280;30989;52.078;21.014;2023-09-19T09:38:46;168959.75;;;19.77;100.00
45255;BME280;30989;52.078;21.014;2023-09-19T09:41:15;168934.16;;;19.67;100.00
45255;BME280;30989;52.078;21.014;2023-09-19T09:43:52;168899.16;;;19.54;100.00
45255;BME280;30989;52.078;21.014;2023-09-19T09:46:20;168878.91;;;19.46;100.00
45255;BME280;30989;52.078;21.014;2023-09-19T09:49:03;168837.19;;;19.30;100.00
45255;BME280;30989;52.078;21.014;2023-09-19T09:51:48;168765.84;;;19.04;100.00
45255;BME280;30989;52.078;21.014;2023-09-19T09:54:25;168695.84;;;18.77;100.00
45255;BME280;30989;52.078;21.014;2023-09-19T09:56:58;168628.50;;;18.52;100.00
45255;BME280;30989;52.078;21.014;2023-09-19T09:59:44;168582.75;;;18.34;100.00
45255;BME280;30989;52.078;21.014;2023-09-19T10:02:17;168545.09;;;18.20;100.00
45255;BME280;30989;52.078;21.014;2023-09-19T10:04:54;168518.19;;;18.10;100.00
45255;BME280;30989;52.078;21.014;2023-09-19T10:07:50;168485.91;;;17.98;100.00
45255;BME280;30989;52.078;21.014;2023-09-19T10:10:33;168475.13;;;17.94;100.00
45255;BME280;30989;52.078;21.014;2023-09-19T10:13:27;168467.06;;;17.91;100.00
45255;BME280;30989;52.078;21.014;2023-09-19T10:15:54;168463.03;;;17.89;100.00
45255;BME280;30989;52.078;21.014;2023-09-19T10:18:23;168453.63;;;17.86;100.00
45255;BME280;30989;52.078;21.014;2023-09-19T10:20:50;168453.63;;;17.86;100.00
45255;BME280;30989;52.078;21.014;2023-09-19T10:23:18;168461.69;;;17.89;100.00
45255;BME280;30989;52.078;21.014;2023-09-19T10:25:52;168472.44;;;17.93;100.00
45255;BME280;30989;52.078;21.014;2023-09-19T10:28:20;168481.88;;;17.96;100.00
45255;BME280;30989;52.078;21.014;2023-09-19T10:30:50;168485.91;;;17.98;100.00
45255;BME280;30989;52.078;21.014;2023-09-19T10:33:17;168496.66;;;18.02;100.00
45255;BME280;30989;52.078;21.014;2023-09-19T10:35:45;168508.75;;;18.07;100.00
45255;BME280;30989;52.078;21.014;2023-09-19T10:38:13;168522.22;;;18.12;100.00
45255;BME280;30989;52.078;21.014;2023-09-19T10:40:40;168520.88;;;18.11;100.00
45255;BME280;30989;52.078;21.014;2023-09-19T10:43:12;168543.75;;;18.20;100.00
45255;BME280;30989;52.078;21.014;2023-09-19T10:45:39;168549.13;;;18.22;100.00
45255;BME280;30989;52.078;21.014;2023-09-19T10:48:05;168557.19;;;18.25;100.00
45255;BME280;30989;52.078;21.014;2023-09-19T10:50:55;168558.53;;;18.25;100.00
45255;BME280;30989;52.078;21.014;2023-09-19T10:53:25;168553.16;;;18.23;100.00
45255;BME280;30989;52.078;21.014;2023-09-19T10:55:55;168589.50;;;18.37;100.00
45255;BME280;30989;52.078;21.014;2023-09-19T10:58:32;168605.63;;;18.43;100.00
45255;BME280;30989;52.078;21.014;2023-09-19T11:01:00;168617.75;;;18.48;100.00
45255;BME280;30989;52.078;21.014;2023-09-19T11:03:30;168635.25;;;18.54;100.00
45255;BME280;30989;52.078;21.014;2023-09-19T11:06:08;168655.47;;;18.62;100.00
45255;BME280;30989;52.078;21.014;2023-09-19T11:30:38;168701.22;;;18.79;100.00
45255;BME280;30989;52.078;21.014;2023-09-19T11:36:09;168720.06;;;18.86;100.00
45255;BME280;30989;52.078;21.014;2023-09-19T11:46:13;168738.91;;;18.93;100.00
45255;BME280;30989;52.078;21.014;2023-09-19T11:48:43;168755.06;;;18.99;100.00
45255;BME280;30989;52.078;21.014;2023-09-19T11:51:11;168761.81;;;19.02;100.00
45255;BME280;30989;52.078;21.014;2023-09-19T11:53:45;168782.00;;;19.10;100.00
45255;BME280;30989;52.078;21.014;2023-09-19T11:56:15;168800.84;;;19.17;100.00
45255;BME280;30989;52.078;21.014;2023-09-19T11:58:41;168834.50;;;19.29;100.00
45255;BME280;30989;52.078;21.014;2023-09-19T12:01:07;168857.38;;;19.38;100.00
45255;BME280;30989;52.078;21.014;2023-09-19T12:03:42;168834.50;;;19.29;100.00
45255;BME280;30989;52.078;21.014;2023-09-19T12:06:16;168835.84;;;19.30;100.00
45255;BME280;30989;52.078;21.014;2023-09-19T12:08:43;168830.44;;;19.28;100.00
45255;BME280;30989;52.078;21.014;2023-09-19T12:11:15;168830.44;;;19.28;100.00
45255;BME280;30989;52.078;21.014;2023-09-19T12:13:45;168825.06;;;19.26;100.00
45255;BME280;30989;52.078;21.014;2023-09-19T12:16:16;168819.69;;;19.24;100.00
45255;BME280;30989;52.078;21.014;2023-09-19T12:18:45;168808.91;;;19.20;100.00
45255;BME280;30989;52.078;21.014;2023-09-19T12:21:31;168808.91;;;19.20;100.00
45255;BME280;30989;52.078;21.014;2023-09-19T12:26:42;168814.28;;;19.22;100.00
45255;BME280;30989;52.078;21.014;2023-09-19T12:29:16;168779.31;;;19.09;100.00
45255;BME280;30989;52.078;21.014;2023-09-19T12:31:51;168757.75;;;19.00;100.00
45255;BME280;30989;52.078;21.014;2023-09-19T12:34:19;168738.91;;;18.93;100.00
45255;BME280;30989;52.078;21.014;2023-09-19T12:36:46;168728.16;;;18.89;100.00
45255;BME280;30989;52.078;21.014;2023-09-19T12:39:11;168734.88;;;18.92;100.00
45255;BME280;30989;52.078;21.014;2023-09-19T12:41:37;168736.22;;;18.92;100.00
45255;BME280;30989;52.078;21.014;2023-09-19T12:44:04;168742.97;;;18.95;100.00
45255;BME280;30989;52.078;21.014;2023-09-19T12:46:34;168741.59;;;18.94;100.00
45255;BME280;30989;52.078;21.014;2023-09-19T12:49:18;168726.81;;;18.89;100.00
45255;BME280;30989;52.078;21.014;2023-09-19T12:51:45;168737.56;;;18.93;100.00
45255;BME280;30989;52.078;21.014;2023-09-19T12:54:10;168730.84;;;18.90;100.00
45255;BME280;30989;52.078;21.014;2023-09-19T12:56:40;168741.59;;;18.94;100.00
45255;BME280;30989;52.078;21.014;2023-09-19T12:59:14;168740.25;;;18.94;100.00
45255;BME280;30989;52.078;21.014;2023-09-19T13:01:41;168755.06;;;18.99;100.00
45255;BME280;30989;52.078;21.014;2023-09-19T13:04:20;168759.09;;;19.01;100.00
45255;BME280;30989;52.078;21.014;2023-09-19T13:06:52;168753.72;;;18.99;100.00
45255;BME280;30989;52.078;21.014;2023-09-19T13:09:19;168760.47;;;19.02;100.00
45255;BME280;30989;52.078;21.014;2023-09-19T13:11:50;168780.66;;;19.09;100.00
45255;BME280;30989;52.078;21.014;2023-09-19T13:14:22;168790.06;;;19.13;100.00
45255;BME280;30989;52.078;21.014;2023-09-19T13:17:06;168783.34;;;19.10;100.00
45255;BME280;30989;52.078;21.014;2023-09-19T13:19:49;168788.72;;;19.12;100.00
45255;BME280;30989;52.078;21.014;2023-09-19T13:22:40;168802.19;;;19.17;100.00
45255;BME280;30989;52.078;21.014;2023-09-19T13:25:20;168798.16;;;19.16;100.00
45255;BME280;30989;52.078;21.014;2023-09-19T13:27:50;168800.84;;;19.17;100.00
45255;BME280;30989;52.078;21.014;2023-09-19T13:30:20;168811.59;;;19.21;100.00
45255;BME280;30989;52.078;21.014;2023-09-19T13:32:47;168814.28;;;19.22;100.00